sensor_id;sensor_type;location;lat;lon;timestamp;temperature;humidity
38436;DHT22;24220;48.168;14.024;2023-02-15T00:00:06;6.20;67.50
38436;DHT22;24220;48.168;14.024;2023-02-15T00:02:38;6.20;67.60
38436;DHT22;24220;48.168;14.024;2023-02-15T00:05:06;6.20;67.70
38436;DHT22;24220;48.168;14.024;2023-02-15T00:07:34;6.20;67.60
38436;DHT22;24220;48.168;14.024;2023-02-15T00:10:05;6.20;67.70
38436;DHT22;24220;48.168;14.024;2023-02-15T00:12:32;6.20;67.60
38436;DHT22;24220;48.168;14.024;2023-02-15T00:15:02;6.20;67.70
38436;DHT22;24220;48.168;14.024;2023-02-15T00:17:34;6.20;67.90
38436;DHT22;24220;48.168;14.024;2023-02-15T00:20:02;6.20;67.90
38436;DHT22;24220;48.168;14.024;2023-02-15T00:22:29;6.20;67.90
38436;DHT22;24220;48.168;14.024;2023-02-15T00:24:59;6.20;67.90
38436;DHT22;24220;48.168;14.024;2023-02-15T00:27:28;6.30;67.90
38436;DHT22;24220;48.168;14.024;2023-02-15T00:29:58;6.30;68.40
38436;DHT22;24220;48.168;14.024;2023-02-15T00:32:30;6.30;68.10
38436;DHT22;24220;48.168;14.024;2023-02-15T00:34:58;6.30;68.00
38436;DHT22;24220;48.168;14.024;2023-02-15T00:37:25;6.30;68.00
38436;DHT22;24220;48.168;14.024;2023-02-15T00:39:53;6.30;68.00
38436;DHT22;24220;48.168;14.024;2023-02-15T00:42:20;6.30;68.00
38436;DHT22;24220;48.168;14.024;2023-02-15T00:44:47;6.30;68.00
38436;DHT22;24220;48.168;14.024;2023-02-15T00:47:15;6.30;68.10
38436;DHT22;24220;48.168;14.024;2023-02-15T00:49:44;6.30;68.10
38436;DHT22;24220;48.168;14.024;2023-02-15T00:52:12;6.40;68.10
38436;DHT22;24220;48.168;14.024;2023-02-15T00:54:41;6.30;68.10
38436;DHT22;24220;48.168;14.024;2023-02-15T00:57:13;6.30;68.20
38436;DHT22;24220;48.168;14.024;2023-02-15T00:59:42;6.40;68.30
38436;DHT22;24220;48.168;14.024;2023-02-15T01:02:09;6.40;68.30
38436;DHT22;24220;48.168;14.024;2023-02-15T01:04:39;6.40;68.40
38436;DHT22;24220;48.168;14.024;2023-02-15T01:07:09;6.40;68.40
38436;DHT22;24220;48.168;14.024;2023-02-15T01:09:37;6.40;68.20
38436;DHT22;24220;48.168;14.024;2023-02-15T01:12:04;6.50;68.20
38436;DHT22;24220;48.168;14.024;2023-02-15T01:14:32;6.50;68.20
38436;DHT22;24220;48.168;14.024;2023-02-15T01:17:01;6.50;68.20
38436;DHT22;24220;48.168;14.024;2023-02-15T01:19:31;6.50;68.20
38436;DHT22;24220;48.168;14.024;2023-02-15T01:22:02;6.50;68.00
38436;DHT22;24220;48.168;14.024;2023-02-15T01:24:32;6.50;67.80
38436;DHT22;24220;48.168;14.024;2023-02-15T01:27:01;6.50;67.80
38436;DHT22;24220;48.168;14.024;2023-02-15T01:29:28;6.50;67.80
38436;DHT22;24220;48.168;14.024;2023-02-15T01:31:58;6.50;67.70
38436;DHT22;24220;48.168;14.024;2023-02-15T01:34:25;6.50;67.80
38436;DHT22;24220;48.168;14.024;2023-02-15T01:36:55;6.50;67.80
38436;DHT22;24220;48.168;14.024;2023-02-15T01:39:24;6.50;67.80
38436;DHT22;24220;48.168;14.024;2023-02-15T01:41:52;6.50;67.80
38436;DHT22;24220;48.168;14.024;2023-02-15T01:44:57;6.50;67.70
38436;DHT22;24220;48.168;14.024;2023-02-15T01:50:06;6.50;67.60
38436;DHT22;24220;48.168;14.024;2023-02-15T01:52:39;6.50;67.50
38436;DHT22;24220;48.168;14.024;2023-02-15T01:55:10;6.50;67.50
38436;DHT22;24220;48.168;14.024;2023-02-15T01:57:39;6.50;67.50
38436;DHT22;24220;48.168;14.024;2023-02-15T02:00:08;6.50;67.60
38436;DHT22;24220;48.168;14.024;2023-02-15T02:02:36;6.50;67.60
38436;DHT22;24220;48.168;14.024;2023-02-15T02:05:05;6.50;67.70
38436;DHT22;24220;48.168;14.024;2023-02-15T02:07:41;6.50;67.80
38436;DHT22;24220;48.168;14.024;2023-02-15T02:10:13;6.50;67.90
38436;DHT22;24220;48.168;14.024;2023-02-15T02:12:43;6.50;67.80
38436;DHT22;24220;48.168;14.024;2023-02-15T02:15:14;6.50;67.80
38436;DHT22;24220;48.168;14.024;2023-02-15T02:25:59;6.50;68.10
38436;DHT22;24220;48.168;14.024;2023-02-15T02:31:55;6.50;68.00
38436;DHT22;24220;48.168;14.024;2023-02-15T02:34:38;6.50;68.10
38436;DHT22;24220;48.168;14.024;2023-02-15T02:42:35;6.50;68.20
38436;DHT22;24220;48.168;14.024;2023-02-15T02:45:04;6.50;68.20
38436;DHT22;24220;48.168;14.024;2023-02-15T02:47:54;6.50;68.30
38436;DHT22;24220;48.168;14.024;2023-02-15T02:50:28;6.50;68.60
38436;DHT22;24220;48.168;14.024;2023-02-15T02:52:58;6.50;68.50
38436;DHT22;24220;48.168;14.024;2023-02-15T03:03:49;6.60;68.70
38436;DHT22;24220;48.168;14.024;2023-02-15T03:06:29;6.60;68.70
38436;DHT22;24220;48.168;14.024;2023-02-15T03:09:17;6.60;68.70
38436;DHT22;24220;48.168;14.024;2023-02-15T03:11:46;6.60;68.70
38436;DHT22;24220;48.168;14.024;2023-02-15T03:14:16;6.60;68.60
38436;DHT22;24220;48.168;14.024;2023-02-15T03:16:49;6.60;68.60
38436;DHT22;24220;48.168;14.024;2023-02-15T03:19:26;6.60;68.70
38436;DHT22;24220;48.168;14.024;2023-02-15T03:22:06;6.60;68.70
38436;DHT22;24220;48.168;14.024;2023-02-15T03:25:09;6.60;68.70
38436;DHT22;24220;48.168;14.024;2023-02-15T03:27:47;6.60;68.70
38436;DHT22;24220;48.168;14.024;2023-02-15T03:30:19;6.60;68.70
38436;DHT22;24220;48.168;14.024;2023-02-15T03:32:51;6.60;68.70
38436;DHT22;24220;48.168;14.024;2023-02-15T03:35:24;6.60;68.60
38436;DHT22;24220;48.168;14.024;2023-02-15T03:37:59;6.60;68.70
38436;DHT22;24220;48.168;14.024;2023-02-15T03:40:38;6.60;68.70
38436;DHT22;24220;48.168;14.024;2023-02-15T03:46:34;6.60;68.60
38436;DHT22;24220;48.168;14.024;2023-02-15T03:49:12;6.70;68.80
38436;DHT22;24220;48.168;14.024;2023-02-15T03:51:46;6.60;68.70
38436;DHT22;24220;48.168;14.024;2023-02-15T03:54:19;6.60;68.80
38436;DHT22;24220;48.168;14.024;2023-02-15T03:57:23;6.60;68.80
38436;DHT22;24220;48.168;14.024;2023-02-15T04:00:22;6.60;68.80
38436;DHT22;24220;48.168;14.024;2023-02-15T04:05:43;6.70;68.80
38436;DHT22;24220;48.168;14.024;2023-02-15T04:08:12;6.70;68.90
38436;DHT22;24220;48.168;14.024;2023-02-15T04:10:39;6.70;69.50
38436;DHT22;24220;48.168;14.024;2023-02-15T04:13:30;6.70;69.00
38436;DHT22;24220;48.168;14.024;2023-02-15T04:16:00;6.70;68.90
38436;DHT22;24220;48.168;14.024;2023-02-15T04:18:34;6.70;68.90
38436;DHT22;24220;48.168;14.024;2023-02-15T04:21:22;6.70;68.90
38436;DHT22;24220;48.168;14.024;2023-02-15T04:24:11;6.70;68.90
38436;DHT22;24220;48.168;14.024;2023-02-15T04:26:58;6.70;68.80
38436;DHT22;24220;48.168;14.024;2023-02-15T04:29:27;6.70;68.90
38436;DHT22;24220;48.168;14.024;2023-02-15T04:32:00;6.70;68.80
38436;DHT22;24220;48.168;14.024;2023-02-15T04:34:28;6.70;68.90
38436;DHT22;24220;48.168;14.024;2023-02-15T04:36:58;6.70;68.90
38436;DHT22;24220;48.168;14.024;2023-02-15T04:39:25;6.70;68.80
38436;DHT22;24220;48.168;14.024;2023-02-15T04:41:52;6.70;68.90
38436;DHT22;24220;48.168;14.024;2023-02-15T04:44:20;6.70;68.90
38436;DHT22;24220;48.168;14.024;2023-02-15T04:46:47;6.70;69.10
38436;DHT22;24220;48.168;14.024;2023-02-15T04:49:17;6.70;69.20
38436;DHT22;24220;48.168;14.024;2023-02-15T04:51:49;6.70;69.30
38436;DHT22;24220;48.168;14.024;2023-02-15T04:54:16;6.80;69.40
38436;DHT22;24220;48.168;14.024;2023-02-15T04:56:44;6.80;69.40
38436;DHT22;24220;48.168;14.024;2023-02-15T04:59:13;6.80;69.30
38436;DHT22;24220;48.168;14.024;2023-02-15T05:01:43;6.80;69.20
38436;DHT22;24220;48.168;14.024;2023-02-15T05:04:15;6.80;69.10
38436;DHT22;24220;48.168;14.024;2023-02-15T05:06:45;6.80;69.00
38436;DHT22;24220;48.168;14.024;2023-02-15T05:09:15;6.80;68.90
38436;DHT22;24220;48.168;14.024;2023-02-15T05:11:43;6.90;69.00
38436;DHT22;24220;48.168;14.024;2023-02-15T05:14:10;6.80;68.90
38436;DHT22;24220;48.168;14.024;2023-02-15T05:16:38;6.90;68.90
38436;DHT22;24220;48.168;14.024;2023-02-15T05:19:05;6.90;69.00
38436;DHT22;24220;48.168;14.024;2023-02-15T05:21:32;6.90;69.00
38436;DHT22;24220;48.168;14.024;2023-02-15T05:24:02;6.90;69.10
38436;DHT22;24220;48.168;14.024;2023-02-15T05:26:52;6.90;69.10
38436;DHT22;24220;48.168;14.024;2023-02-15T05:29:38;6.90;69.10
38436;DHT22;24220;48.168;14.024;2023-02-15T05:32:07;6.90;69.60
38436;DHT22;24220;48.168;14.024;2023-02-15T05:34:37;6.90;69.00
38436;DHT22;24220;48.168;14.024;2023-02-15T05:37:05;6.90;69.10
38436;DHT22;24220;48.168;14.024;2023-02-15T05:39:32;6.90;69.00
38436;DHT22;24220;48.168;14.024;2023-02-15T05:42:00;6.90;68.90
38436;DHT22;24220;48.168;14.024;2023-02-15T05:44:27;6.90;68.90
38436;DHT22;24220;48.168;14.024;2023-02-15T05:46:54;6.90;68.90
38436;DHT22;24220;48.168;14.024;2023-02-15T05:49:22;6.90;69.00
38436;DHT22;24220;48.168;14.024;2023-02-15T05:51:51;6.90;69.00
38436;DHT22;24220;48.168;14.024;2023-02-15T05:54:18;6.90;69.00
38436;DHT22;24220;48.168;14.024;2023-02-15T05:56:45;6.90;69.10
38436;DHT22;24220;48.168;14.024;2023-02-15T05:59:15;6.90;69.10
38436;DHT22;24220;48.168;14.024;2023-02-15T06:01:47;6.80;69.00
38436;DHT22;24220;48.168;14.024;2023-02-15T06:04:14;6.80;69.10
38436;DHT22;24220;48.168;14.024;2023-02-15T06:06:44;6.90;69.30
38436;DHT22;24220;48.168;14.024;2023-02-15T06:09:12;6.90;69.10
38436;DHT22;24220;48.168;14.024;2023-02-15T06:11:42;6.90;69.10
38436;DHT22;24220;48.168;14.024;2023-02-15T06:14:12;6.90;69.10
38436;DHT22;24220;48.168;14.024;2023-02-15T06:16:39;6.80;69.10
38436;DHT22;24220;48.168;14.024;2023-02-15T06:19:06;6.80;69.20
38436;DHT22;24220;48.168;14.024;2023-02-15T06:21:36;6.80;69.30
38436;DHT22;24220;48.168;14.024;2023-02-15T06:24:07;6.80;69.30
38436;DHT22;24220;48.168;14.024;2023-02-15T06:26:35;6.80;69.40
38436;DHT22;24220;48.168;14.024;2023-02-15T06:29:02;6.80;69.40
38436;DHT22;24220;48.168;14.024;2023-02-15T06:31:30;6.80;69.40
38436;DHT22;24220;48.168;14.024;2023-02-15T06:33:59;6.90;69.50
38436;DHT22;24220;48.168;14.024;2023-02-15T06:36:35;6.90;69.50
38436;DHT22;24220;48.168;14.024;2023-02-15T06:39:03;6.90;69.50
38436;DHT22;24220;48.168;14.024;2023-02-15T06:41:31;6.90;69.50
38436;DHT22;24220;48.168;14.024;2023-02-15T06:44:00;6.90;70.10
38436;DHT22;24220;48.168;14.024;2023-02-15T06:46:30;6.90;69.50
38436;DHT22;24220;48.168;14.024;2023-02-15T06:49:00;6.90;69.40
38436;DHT22;24220;48.168;14.024;2023-02-15T06:51:27;6.90;69.40
38436;DHT22;24220;48.168;14.024;2023-02-15T06:53:54;6.90;69.40
38436;DHT22;24220;48.168;14.024;2023-02-15T06:56:22;6.90;69.40
38436;DHT22;24220;48.168;14.024;2023-02-15T06:58:51;6.90;69.50
38436;DHT22;24220;48.168;14.024;2023-02-15T07:01:21;6.90;69.50
38436;DHT22;24220;48.168;14.024;2023-02-15T07:03:49;6.90;69.50
38436;DHT22;24220;48.168;14.024;2023-02-15T07:06:18;6.90;69.60
38436;DHT22;24220;48.168;14.024;2023-02-15T07:08:46;6.90;69.50
38436;DHT22;24220;48.168;14.024;2023-02-15T07:11:13;6.90;69.50
38436;DHT22;24220;48.168;14.024;2023-02-15T07:13:59;6.90;69.50
38436;DHT22;24220;48.168;14.024;2023-02-15T07:16:26;6.90;69.50
38436;DHT22;24220;48.168;14.024;2023-02-15T07:18:53;6.90;69.60
38436;DHT22;24220;48.168;14.024;2023-02-15T07:21:21;6.90;69.50
38436;DHT22;24220;48.168;14.024;2023-02-15T07:23:50;6.90;69.50
38436;DHT22;24220;48.168;14.024;2023-02-15T07:26:20;7.00;69.50
38436;DHT22;24220;48.168;14.024;2023-02-15T07:28:47;6.90;69.40
38436;DHT22;24220;48.168;14.024;2023-02-15T07:31:17;7.00;69.50
38436;DHT22;24220;48.168;14.024;2023-02-15T07:33:45;7.00;69.40
38436;DHT22;24220;48.168;14.024;2023-02-15T07:36:13;6.90;69.40
38436;DHT22;24220;48.168;14.024;2023-02-15T07:38:41;7.00;69.50
38436;DHT22;24220;48.168;14.024;2023-02-15T07:41:11;6.90;69.50
38436;DHT22;24220;48.168;14.024;2023-02-15T07:43:41;7.00;69.70
38436;DHT22;24220;48.168;14.024;2023-02-15T07:46:14;7.00;69.80
38436;DHT22;24220;48.168;14.024;2023-02-15T07:48:43;7.00;69.80
38436;DHT22;24220;48.168;14.024;2023-02-15T07:51:13;7.00;69.80
38436;DHT22;24220;48.168;14.024;2023-02-15T07:53:44;7.00;69.90
38436;DHT22;24220;48.168;14.024;2023-02-15T07:56:16;7.00;69.80
38436;DHT22;24220;48.168;14.024;2023-02-15T07:58:44;7.00;69.80
38436;DHT22;24220;48.168;14.024;2023-02-15T08:01:35;7.00;69.80
38436;DHT22;24220;48.168;14.024;2023-02-15T08:04:06;7.10;69.90
38436;DHT22;24220;48.168;14.024;2023-02-15T08:06:35;7.10;69.90
38436;DHT22;24220;48.168;14.024;2023-02-15T08:09:04;7.10;69.90
38436;DHT22;24220;48.168;14.024;2023-02-15T08:11:34;7.10;69.70
38436;DHT22;24220;48.168;14.024;2023-02-15T08:16:42;7.10;69.70
38436;DHT22;24220;48.168;14.024;2023-02-15T08:21:45;7.20;69.50
38436;DHT22;24220;48.168;14.024;2023-02-15T08:24:18;7.20;69.50
38436;DHT22;24220;48.168;14.024;2023-02-15T08:26:46;7.20;69.50
38436;DHT22;24220;48.168;14.024;2023-02-15T08:29:17;7.10;69.40
38436;DHT22;24220;48.168;14.024;2023-02-15T08:31:45;7.20;69.50
38436;DHT22;24220;48.168;14.024;2023-02-15T08:34:15;7.20;69.50
38436;DHT22;24220;48.168;14.024;2023-02-15T08:36:45;7.20;69.50
38436;DHT22;24220;48.168;14.024;2023-02-15T08:39:14;7.20;69.50
38436;DHT22;24220;48.168;14.024;2023-02-15T08:41:43;7.20;69.40
38436;DHT22;24220;48.168;14.024;2023-02-15T08:44:17;7.20;69.30
38436;DHT22;24220;48.168;14.024;2023-02-15T08:46:46;7.20;69.20
38436;DHT22;24220;48.168;14.024;2023-02-15T08:49:18;7.20;69.10
38436;DHT22;24220;48.168;14.024;2023-02-15T08:51:47;7.20;69.20
38436;DHT22;24220;48.168;14.024;2023-02-15T08:54:19;7.20;69.20
38436;DHT22;24220;48.168;14.024;2023-02-15T08:56:47;7.20;69.20
38436;DHT22;24220;48.168;14.024;2023-02-15T08:59:22;7.20;69.10
38436;DHT22;24220;48.168;14.024;2023-02-15T09:01:51;7.20;69.00
38436;DHT22;24220;48.168;14.024;2023-02-15T09:04:20;7.20;69.00
38436;DHT22;24220;48.168;14.024;2023-02-15T09:06:48;7.20;69.00
38436;DHT22;24220;48.168;14.024;2023-02-15T09:09:21;7.20;69.00
38436;DHT22;24220;48.168;14.024;2023-02-15T09:11:50;7.20;69.10
38436;DHT22;24220;48.168;14.024;2023-02-15T09:14:25;7.20;69.00
38436;DHT22;24220;48.168;14.024;2023-02-15T09:16:55;7.20;68.80
38436;DHT22;24220;48.168;14.024;2023-02-15T09:19:24;7.20;68.80
38436;DHT22;24220;48.168;14.024;2023-02-15T09:21:57;7.20;68.90
38436;DHT22;24220;48.168;14.024;2023-02-15T09:24:27;7.20;68.90
38436;DHT22;24220;48.168;14.024;2023-02-15T09:27:03;7.20;69.00
38436;DHT22;24220;48.168;14.024;2023-02-15T09:29:30;7.20;69.00
38436;DHT22;24220;48.168;14.024;2023-02-15T09:32:00;7.20;69.00
38436;DHT22;24220;48.168;14.024;2023-02-15T09:34:27;7.20;68.90
38436;DHT22;24220;48.168;14.024;2023-02-15T09:36:54;7.20;68.90
38436;DHT22;24220;48.168;14.024;2023-02-15T09:39:24;7.20;68.90
38436;DHT22;24220;48.168;14.024;2023-02-15T09:53:47;7.20;68.90
38436;DHT22;24220;48.168;14.024;2023-02-15T09:56:42;7.20;68.90
38436;DHT22;24220;48.168;14.024;2023-02-15T10:02:42;7.30;68.90
38436;DHT22;24220;48.168;14.024;2023-02-15T10:05:20;7.30;68.70
38436;DHT22;24220;48.168;14.024;2023-02-15T10:08:21;7.30;68.50
38436;DHT22;24220;48.168;14.024;2023-02-15T10:11:05;7.30;68.30
38436;DHT22;24220;48.168;14.024;2023-02-15T10:20:23;7.20;68.40
38436;DHT22;24220;48.168;14.024;2023-02-15T10:22:54;7.30;68.60
38436;DHT22;24220;48.168;14.024;2023-02-15T10:28:53;7.30;68.70
38436;DHT22;24220;48.168;14.024;2023-02-15T10:31:33;7.30;68.60
38436;DHT22;24220;48.168;14.024;2023-02-15T10:34:12;7.30;69.10
38436;DHT22;24220;48.168;14.024;2023-02-15T10:36:59;7.30;68.50
38436;DHT22;24220;48.168;14.024;2023-02-15T10:55:33;7.30;68.30
38436;DHT22;24220;48.168;14.024;2023-02-15T11:01:18;7.30;68.50
38436;DHT22;24220;48.168;14.024;2023-02-15T11:09:53;7.30;68.50
38436;DHT22;24220;48.168;14.024;2023-02-15T11:12:27;7.30;68.50
38436;DHT22;24220;48.168;14.024;2023-02-15T11:15:11;7.40;68.50
38436;DHT22;24220;48.168;14.024;2023-02-15T11:17:50;7.30;68.30
38436;DHT22;24220;48.168;14.024;2023-02-15T11:20:37;7.40;68.20
38436;DHT22;24220;48.168;14.024;2023-02-15T11:23:15;7.40;68.30
38436;DHT22;24220;48.168;14.024;2023-02-15T11:25:59;7.40;68.30
38436;DHT22;24220;48.168;14.024;2023-02-15T11:28:37;7.40;68.30
38436;DHT22;24220;48.168;14.024;2023-02-15T11:31:21;7.50;68.80
38436;DHT22;24220;48.168;14.024;2023-02-15T11:34:00;7.40;68.50
38436;DHT22;24220;48.168;14.024;2023-02-15T11:36:35;7.50;68.50
38436;DHT22;24220;48.168;14.024;2023-02-15T11:39:17;7.50;68.40
38436;DHT22;24220;48.168;14.024;2023-02-15T11:41:49;7.50;68.40
38436;DHT22;24220;48.168;14.024;2023-02-15T11:44:25;7.60;68.40
38436;DHT22;24220;48.168;14.024;2023-02-15T11:46:54;7.60;68.40
38436;DHT22;24220;48.168;14.024;2023-02-15T11:49:34;7.60;69.00
38436;DHT22;24220;48.168;14.024;2023-02-15T11:52:06;7.70;68.40
38436;DHT22;24220;48.168;14.024;2023-02-15T11:54:43;7.70;68.40
38436;DHT22;24220;48.168;14.024;2023-02-15T11:57:25;7.70;68.40
38436;DHT22;24220;48.168;14.024;2023-02-15T12:00:20;7.70;68.20
38436;DHT22;24220;48.168;14.024;2023-02-15T12:02:52;7.80;68.40
38436;DHT22;24220;48.168;14.024;2023-02-15T12:05:24;7.80;68.40
38436;DHT22;24220;48.168;14.024;2023-02-15T12:07:55;7.80;68.20
38436;DHT22;24220;48.168;14.024;2023-02-15T12:10:29;7.80;68.10
38436;DHT22;24220;48.168;14.024;2023-02-15T12:13:19;7.90;68.10
38436;DHT22;24220;48.168;14.024;2023-02-15T12:15:57;7.90;68.10
38436;DHT22;24220;48.168;14.024;2023-02-15T12:21:29;7.90;67.80
38436;DHT22;24220;48.168;14.024;2023-02-15T12:24:09;8.00;67.80
38436;DHT22;24220;48.168;14.024;2023-02-15T12:26:41;8.00;67.70
38436;DHT22;24220;48.168;14.024;2023-02-15T12:29:17;8.00;67.70
38436;DHT22;24220;48.168;14.024;2023-02-15T12:31:51;8.00;67.60
38436;DHT22;24220;48.168;14.024;2023-02-15T12:34:27;8.00;67.70
38436;DHT22;24220;48.168;14.024;2023-02-15T12:37:10;8.00;67.70
38436;DHT22;24220;48.168;14.024;2023-02-15T12:40:01;8.00;68.20
38436;DHT22;24220;48.168;14.024;2023-02-15T12:42:43;8.00;67.50
38436;DHT22;24220;48.168;14.024;2023-02-15T12:48:17;8.10;67.70
38436;DHT22;24220;48.168;14.024;2023-02-15T12:54:38;8.10;67.40
38436;DHT22;24220;48.168;14.024;2023-02-15T13:02:34;8.10;67.20
38436;DHT22;24220;48.168;14.024;2023-02-15T13:05:30;8.10;67.20
38436;DHT22;24220;48.168;14.024;2023-02-15T13:08:09;8.10;67.20
38436;DHT22;24220;48.168;14.024;2023-02-15T13:10:52;8.10;67.30
38436;DHT22;24220;48.168;14.024;2023-02-15T13:16:34;8.10;67.20
38436;DHT22;24220;48.168;14.024;2023-02-15T13:19:12;8.00;66.90
38436;DHT22;24220;48.168;14.024;2023-02-15T13:21:44;8.10;67.00
38436;DHT22;24220;48.168;14.024;2023-02-15T13:24:20;8.00;67.10
38436;DHT22;24220;48.168;14.024;2023-02-15T13:26:54;8.00;67.10
38436;DHT22;24220;48.168;14.024;2023-02-15T13:29:39;8.00;67.10
38436;DHT22;24220;48.168;14.024;2023-02-15T13:32:15;8.00;67.00
38436;DHT22;24220;48.168;14.024;2023-02-15T13:35:05;8.00;67.00
38436;DHT22;24220;48.168;14.024;2023-02-15T13:54:16;8.00;67.00
38436;DHT22;24220;48.168;14.024;2023-02-15T13:57:20;8.00;66.90
38436;DHT22;24220;48.168;14.024;2023-02-15T14:11:58;8.00;67.10
38436;DHT22;24220;48.168;14.024;2023-02-15T14:23:43;8.00;66.90
38436;DHT22;24220;48.168;14.024;2023-02-15T14:26:29;8.00;66.80
38436;DHT22;24220;48.168;14.024;2023-02-15T14:32:07;7.90;67.00
38436;DHT22;24220;48.168;14.024;2023-02-15T14:34:48;7.90;67.00
38436;DHT22;24220;48.168;14.024;2023-02-15T14:40:19;7.90;66.90
38436;DHT22;24220;48.168;14.024;2023-02-15T14:43:11;7.90;67.00
38436;DHT22;24220;48.168;14.024;2023-02-15T14:46:07;7.90;67.00
38436;DHT22;24220;48.168;14.024;2023-02-15T14:48:54;7.90;67.00
38436;DHT22;24220;48.168;14.024;2023-02-15T14:57:20;7.80;67.00
38436;DHT22;24220;48.168;14.024;2023-02-15T15:02:16;7.80;67.20
38436;DHT22;24220;48.168;14.024;2023-02-15T15:07:25;7.80;67.10
38436;DHT22;24220;48.168;14.024;2023-02-15T15:10:04;7.80;67.00
38436;DHT22;24220;48.168;14.024;2023-02-15T15:12:54;7.90;67.10
38436;DHT22;24220;48.168;14.024;2023-02-15T15:18:09;7.80;67.00
38436;DHT22;24220;48.168;14.024;2023-02-15T15:31:18;7.80;67.20
38436;DHT22;24220;48.168;14.024;2023-02-15T15:37:23;7.80;67.30
38436;DHT22;24220;48.168;14.024;2023-02-15T15:41:00;7.80;67.30
38436;DHT22;24220;48.168;14.024;2023-02-15T15:51:28;7.80;67.20
38436;DHT22;24220;48.168;14.024;2023-02-15T15:53:56;7.80;67.00
38436;DHT22;24220;48.168;14.024;2023-02-15T15:56:27;7.80;67.10
38436;DHT22;24220;48.168;14.024;2023-02-15T15:59:01;7.80;67.20
38436;DHT22;24220;48.168;14.024;2023-02-15T16:01:31;7.80;67.20
38436;DHT22;24220;48.168;14.024;2023-02-15T16:04:01;7.80;67.30
38436;DHT22;24220;48.168;14.024;2023-02-15T16:06:35;7.80;67.30
38436;DHT22;24220;48.168;14.024;2023-02-15T16:09:20;7.80;67.20
38436;DHT22;24220;48.168;14.024;2023-02-15T16:11:58;7.80;66.90
38436;DHT22;24220;48.168;14.024;2023-02-15T16:16:58;7.80;66.90
38436;DHT22;24220;48.168;14.024;2023-02-15T16:19:38;7.80;67.00
38436;DHT22;24220;48.168;14.024;2023-02-15T16:22:26;7.80;67.10
38436;DHT22;24220;48.168;14.024;2023-02-15T16:25:31;7.80;67.10
38436;DHT22;24220;48.168;14.024;2023-02-15T16:28:11;7.80;67.00
38436;DHT22;24220;48.168;14.024;2023-02-15T16:30:40;7.80;67.00
38436;DHT22;24220;48.168;14.024;2023-02-15T16:33:16;7.80;66.90
38436;DHT22;24220;48.168;14.024;2023-02-15T16:35:55;7.80;67.00
38436;DHT22;24220;48.168;14.024;2023-02-15T16:41:15;7.80;67.00
38436;DHT22;24220;48.168;14.024;2023-02-15T16:43:47;7.80;66.90
38436;DHT22;24220;48.168;14.024;2023-02-15T16:48:52;7.80;66.90
38436;DHT22;24220;48.168;14.024;2023-02-15T16:51:31;7.80;66.90
38436;DHT22;24220;48.168;14.024;2023-02-15T16:54:16;7.70;66.90
38436;DHT22;24220;48.168;14.024;2023-02-15T16:56:48;7.70;66.80
38436;DHT22;24220;48.168;14.024;2023-02-15T16:59:38;7.70;66.90
38436;DHT22;24220;48.168;14.024;2023-02-15T17:02:14;7.70;66.80
38436;DHT22;24220;48.168;14.024;2023-02-15T17:05:25;7.70;66.80
38436;DHT22;24220;48.168;14.024;2023-02-15T17:08:19;7.70;66.80
38436;DHT22;24220;48.168;14.024;2023-02-15T17:13:39;7.70;66.80
38436;DHT22;24220;48.168;14.024;2023-02-15T17:16:30;7.60;66.80
38436;DHT22;24220;48.168;14.024;2023-02-15T17:19:13;7.60;66.90
38436;DHT22;24220;48.168;14.024;2023-02-15T17:21:46;7.60;67.00
38436;DHT22;24220;48.168;14.024;2023-02-15T17:24:34;7.60;67.00
38436;DHT22;24220;48.168;14.024;2023-02-15T17:27:12;7.60;66.90
38436;DHT22;24220;48.168;14.024;2023-02-15T17:29:48;7.60;66.80
38436;DHT22;24220;48.168;14.024;2023-02-15T17:32:22;7.60;66.90
38436;DHT22;24220;48.168;14.024;2023-02-15T17:42:47;7.50;66.80
38436;DHT22;24220;48.168;14.024;2023-02-15T17:45:15;7.50;66.80
38436;DHT22;24220;48.168;14.024;2023-02-15T17:47:49;7.50;66.90
38436;DHT22;24220;48.168;14.024;2023-02-15T17:50:27;7.50;66.80
38436;DHT22;24220;48.168;14.024;2023-02-15T17:52:58;7.40;66.80
38436;DHT22;24220;48.168;14.024;2023-02-15T17:55:27;7.50;66.90
38436;DHT22;24220;48.168;14.024;2023-02-15T18:00:43;7.40;66.80
38436;DHT22;24220;48.168;14.024;2023-02-15T18:03:49;7.40;66.90
38436;DHT22;24220;48.168;14.024;2023-02-15T18:06:38;7.40;67.00
38436;DHT22;24220;48.168;14.024;2023-02-15T18:09:24;7.40;67.00
38436;DHT22;24220;48.168;14.024;2023-02-15T18:14:47;7.30;66.90
38436;DHT22;24220;48.168;14.024;2023-02-15T18:17:16;7.30;67.00
38436;DHT22;24220;48.168;14.024;2023-02-15T18:19:46;7.30;67.10
38436;DHT22;24220;48.168;14.024;2023-02-15T18:22:16;7.30;67.20
38436;DHT22;24220;48.168;14.024;2023-02-15T18:24:46;7.30;67.30
38436;DHT22;24220;48.168;14.024;2023-02-15T18:27:15;7.30;67.40
38436;DHT22;24220;48.168;14.024;2023-02-15T18:29:43;7.30;67.40
38436;DHT22;24220;48.168;14.024;2023-02-15T18:32:22;7.30;67.30
38436;DHT22;24220;48.168;14.024;2023-02-15T18:34:55;7.30;67.40
38436;DHT22;24220;48.168;14.024;2023-02-15T18:37:27;7.30;67.30
38436;DHT22;24220;48.168;14.024;2023-02-15T18:39:55;7.30;67.30
38436;DHT22;24220;48.168;14.024;2023-02-15T18:45:00;7.30;67.30
38436;DHT22;24220;48.168;14.024;2023-02-15T18:47:29;7.40;67.30
38436;DHT22;24220;48.168;14.024;2023-02-15T18:50:01;7.40;67.20
38436;DHT22;24220;48.168;14.024;2023-02-15T18:52:32;7.30;67.10
38436;DHT22;24220;48.168;14.024;2023-02-15T18:55:03;7.30;67.00
38436;DHT22;24220;48.168;14.024;2023-02-15T18:57:34;7.30;67.00
38436;DHT22;24220;48.168;14.024;2023-02-15T19:00:01;7.30;67.10
38436;DHT22;24220;48.168;14.024;2023-02-15T19:02:28;7.30;67.10
38436;DHT22;24220;48.168;14.024;2023-02-15T19:04:58;7.30;67.20
38436;DHT22;24220;48.168;14.024;2023-02-15T19:07:31;7.30;67.20
38436;DHT22;24220;48.168;14.024;2023-02-15T19:10:05;7.30;67.10
38436;DHT22;24220;48.168;14.024;2023-02-15T19:12:34;7.30;67.20
38436;DHT22;24220;48.168;14.024;2023-02-15T19:15:01;7.30;67.30
38436;DHT22;24220;48.168;14.024;2023-02-15T19:17:31;7.30;67.30
38436;DHT22;24220;48.168;14.024;2023-02-15T19:19:58;7.30;67.30
38436;DHT22;24220;48.168;14.024;2023-02-15T19:22:29;7.20;67.20
38436;DHT22;24220;48.168;14.024;2023-02-15T19:24:59;7.30;67.20
38436;DHT22;24220;48.168;14.024;2023-02-15T19:27:32;7.20;67.20
38436;DHT22;24220;48.168;14.024;2023-02-15T19:30:16;7.20;67.30
38436;DHT22;24220;48.168;14.024;2023-02-15T19:32:44;7.30;67.30
38436;DHT22;24220;48.168;14.024;2023-02-15T19:35:19;7.30;67.20
38436;DHT22;24220;48.168;14.024;2023-02-15T19:37:52;7.20;67.30
38436;DHT22;24220;48.168;14.024;2023-02-15T19:40:21;7.20;67.30
38436;DHT22;24220;48.168;14.024;2023-02-15T19:42:49;7.20;67.20
38436;DHT22;24220;48.168;14.024;2023-02-15T19:45:20;7.20;67.10